TTPP/POS METAR and TAF weather

Enter ICAO airport designator
Station Type Date Time Source
TTPP METAR 2020/12/05 06:00 UTC NOAA

TTPP 050600Z 00000KT 9999 VCSH FEW015 24/23 Q1012 NOSIG RMK VCSH SE


Station Type Date Time Source
TTPP Decoded METAR 2020/12/05 06:00 UTC NOAA

Piarco International Airport, Trinidad, Trinidad and Tobago (TTPP) 10-37N 061-21W 15M
Dec 05, 2020 - 01:00 AM EST / 2020.12.05 0600 UTC
Wind: Calm:0
Visibility: greater than 7 mile(s):0
Sky conditions: mostly clear
Weather: showers in the vicinity
Temperature: 75 F (24 C)
Dew Point: 73 F (23 C)
Relative Humidity: 94%
Pressure (altimeter): 29.88 in. Hg (1012 hPa)
ob: TTPP 050600Z 00000KT 9999 VCSH FEW015 24/23 Q1012 NOSIG RMK VCSH SE
cycle: 6

Station Type Date Time Source
TTPP TAF 2020/12/05 06:30 UTC NOAA

TAF TTPP 050400Z 0506/0606 00000KT 9999 FEW018
TEMPO 0509/0515 5000 SHRA SCT015 SCT035
BECMG 0512/0514 10012KT SCT025

Example: see airport list